Hauptseite
METAR-TAF:

METAR-TAF

Flughäfen :

Istanbul Atatürk, Türkei

Flughafen Istanbul-Atatürk

Breite: 40-58N, Länge: 028-49E, Höhe: 48 m

Beobachtung

Neuester Wetterbericht von vor 30 Minuten, um 02:50 UTC
Wind 2 kt aus West/Nordwest
Temperatur 15°C
Luftfeuchtigkeit 63%
Luftdruck 1012 hPa
Sichtweite 10 km oder mehr
keine Wolken unter 1500 m und keine Kumulonimbus oder Gewitterwolken

METAR: LTBA 300250Z 29002KT CAVOK 15/08 Q1012 NOSIG

Zeit: 06:20 (03:20 UTC)

Prognose

Neuester Wetterbericht von vor 4 Stunden und 40 Minuten, um 22:40 UTC
Gültige Prognose vom 30 um 00 UTC bis 01 um 06 UTC
Wind 8 kt aus Nord/Nordost
Sichtweite 10 km oder mehr
keine Wolken unter 1500 m und keine Kumulonimbus oder Gewitterwolken

TAF: LTBA 292240Z 3000/0106 02008KT CAVOK

Wetterbeobachtungen und Prognosen von mehr als 4000 Flughäfen (METAR und TAF Bericht).

Die verfügbaren Stationen werden durch gelbe und rote Markierungen auf der Karte dargestellt.

Führen Sie die Maus auf sie, um den Namen der Station zu sehen.

Darauf klicken, um die Beobachtung von Wetterbeobachtungen und Prognosen zu sehen.

Um die Karte zu ändern : klicken Sie auf den grünen Tasten mit einem schwarzen Kreuz Zum Vergrößern, auf den grünen Button mit einem Gedankenstrich zu verkleinern, oder auf die grünen Pfeile für benachbarte Karten.


METAR-TAF: